createdAt,value
2022-09-21T00:00:14.299Z,5.35
2022-09-21T00:02:41.011Z,4.53
2022-09-21T00:05:08.898Z,3.03
2022-09-21T00:07:35.578Z,4.10
2022-09-21T00:10:02.218Z,4.97
2022-09-21T00:12:31.586Z,7.32
2022-09-21T00:17:25.412Z,5.95
2022-09-21T00:19:52.471Z,4.60
2022-09-21T00:22:19.158Z,6.72
2022-09-21T00:24:46.045Z,6.50
2022-09-21T00:27:12.719Z,6.50
2022-09-21T00:29:40.966Z,7.25
2022-09-21T00:32:07.634Z,5.82
2022-09-21T00:34:34.248Z,5.45
2022-09-21T00:37:00.856Z,4.03
2022-09-21T00:39:27.505Z,4.55
2022-09-21T00:41:54.153Z,3.47
2022-09-21T00:44:29.145Z,5.43
2022-09-21T00:47:01.559Z,5.32
2022-09-21T00:49:29.138Z,3.95
2022-09-21T00:51:58.940Z,2.58
2022-09-21T00:54:29.994Z,3.88
2022-09-21T00:57:01.275Z,6.32
2022-09-21T00:59:30.305Z,8.10
2022-09-21T01:01:59.571Z,7.15
2022-09-21T01:04:28.435Z,4.63
2022-09-21T01:06:56.672Z,5.65
2022-09-21T01:09:24.049Z,5.25
2022-09-21T01:12:04.570Z,4.93
2022-09-21T01:15:05.692Z,2.83
2022-09-21T01:17:43.723Z,3.63
2022-09-21T01:20:41.965Z,6.05
2022-09-21T01:23:24.682Z,5.90
2022-09-21T01:26:05.616Z,6.47
2022-09-21T01:29:12.632Z,6.10
2022-09-21T01:31:45.547Z,6.28
2022-09-21T01:34:17.327Z,5.20
2022-09-21T01:36:47.464Z,4.68
2022-09-21T01:39:16.920Z,4.65
2022-09-21T01:44:15.684Z,4.00
2022-09-21T01:46:46.904Z,11.55
2022-09-21T01:49:17.943Z,4.35
2022-09-21T01:51:50.406Z,5.22
2022-09-21T01:54:21.787Z,3.90
2022-09-21T01:56:54.740Z,4.82
2022-09-21T01:59:28.205Z,7.45
2022-09-21T02:02:00.426Z,5.45
2022-09-21T02:04:27.612Z,7.53
2022-09-21T02:06:55.148Z,7.38
2022-09-21T02:09:23.979Z,7.22
2022-09-21T02:11:50.553Z,5.47
2022-09-21T02:14:22.296Z,4.93
2022-09-21T02:16:55.468Z,4.10
2022-09-21T02:19:35.924Z,4.70
2022-09-21T02:22:07.379Z,7.38
2022-09-21T02:24:41.387Z,3.90
2022-09-21T02:27:19.862Z,5.13
2022-09-21T02:29:51.910Z,7.18
2022-09-21T02:32:33.971Z,7.10
2022-09-21T02:35:09.379Z,3.65
2022-09-21T02:37:44.290Z,6.15
2022-09-21T02:40:22.348Z,3.80
2022-09-21T02:42:56.587Z,5.35
2022-09-21T02:45:27.105Z,5.10
2022-09-21T02:47:59.601Z,3.92
2022-09-21T02:50:35.373Z,4.93
2022-09-21T02:53:04.977Z,4.82
2022-09-21T02:55:33.246Z,6.53
2022-09-21T02:58:05.383Z,5.85
2022-09-21T03:00:33.273Z,6.13
2022-09-21T03:02:59.878Z,4.38
2022-09-21T03:05:29.468Z,3.65
2022-09-21T03:07:56.067Z,5.47
2022-09-21T03:10:22.662Z,5.68
2022-09-21T03:12:49.230Z,3.80
2022-09-21T03:15:18.253Z,4.43
2022-09-21T03:17:44.964Z,4.93
2022-09-21T03:20:11.681Z,6.43
2022-09-21T03:22:39.583Z,7.45
2022-09-21T03:25:09.274Z,6.32
2022-09-21T03:27:35.889Z,3.47
2022-09-21T03:30:02.873Z,4.55
2022-09-21T03:32:29.626Z,4.53
2022-09-21T03:34:56.360Z,4.85
2022-09-21T03:37:22.940Z,4.63
2022-09-21T03:39:50.843Z,4.28
2022-09-21T03:42:17.487Z,5.78
2022-09-21T03:44:44.456Z,4.60
2022-09-21T03:47:11.147Z,6.57
2022-09-21T03:49:38.768Z,3.50
2022-09-21T03:52:05.364Z,5.28
2022-09-21T03:54:32.055Z,6.85
2022-09-21T03:57:00.250Z,8.57
2022-09-21T03:59:26.902Z,6.68
2022-09-21T04:01:53.683Z,5.28
2022-09-21T04:04:20.727Z,3.75
2022-09-21T04:06:47.370Z,3.75
2022-09-21T04:09:13.994Z,9.70
2022-09-21T04:11:40.645Z,7.40
2022-09-21T04:14:08.607Z,7.40
2022-09-21T04:16:35.333Z,9.48
2022-09-21T04:19:01.964Z,8.30
2022-09-21T04:21:29.394Z,6.07
2022-09-21T04:23:56.456Z,6.50
2022-09-21T04:26:26.707Z,5.18
2022-09-21T04:28:55.147Z,7.03
2022-09-21T04:31:23.945Z,8.40
2022-09-21T04:33:52.121Z,7.82
2022-09-21T04:36:19.951Z,6.05
2022-09-21T04:38:47.350Z,10.23
2022-09-21T04:41:15.206Z,9.18
2022-09-21T04:43:43.381Z,7.50
2022-09-21T04:46:12.639Z,6.45
2022-09-21T04:48:42.097Z,6.82
2022-09-21T04:51:10.543Z,7.40
2022-09-21T04:53:39.995Z,5.53
2022-09-21T04:56:07.937Z,6.45
2022-09-21T04:58:34.813Z,10.18
2022-09-21T05:01:02.252Z,7.60
2022-09-21T05:03:28.938Z,8.15
2022-09-21T05:05:58.032Z,8.60
2022-09-21T05:08:44.808Z,6.70
2022-09-21T05:11:13.628Z,5.93
2022-09-21T05:13:40.645Z,7.68
2022-09-21T05:16:07.481Z,8.35
2022-09-21T05:18:34.343Z,11.07
2022-09-21T05:21:03.843Z,6.32
2022-09-21T05:25:58.252Z,7.85
2022-09-21T05:28:26.372Z,9.55
2022-09-21T05:31:16.687Z,10.98
2022-09-21T05:33:51.368Z,9.73
2022-09-21T05:36:36.588Z,11.55
2022-09-21T05:39:03.860Z,9.52
2022-09-21T05:41:31.113Z,7.78
2022-09-21T05:43:58.252Z,7.90
2022-09-21T05:46:37.559Z,7.65
2022-09-21T05:49:12.464Z,8.95
2022-09-21T05:51:50.131Z,8.13
2022-09-21T05:54:26.481Z,9.18
2022-09-21T05:57:01.303Z,10.23
2022-09-21T05:59:48.465Z,10.23
2022-09-21T06:02:26.172Z,8.55
2022-09-21T06:04:56.325Z,11.63
2022-09-21T06:07:24.621Z,9.88
2022-09-21T06:09:51.316Z,10.15
2022-09-21T06:12:18.156Z,10.10
2022-09-21T06:14:44.839Z,11.65
2022-09-21T06:17:11.437Z,10.38
2022-09-21T06:19:38.141Z,10.60
2022-09-21T06:22:05.035Z,10.13
2022-09-21T06:24:33.003Z,9.05
2022-09-21T06:26:59.622Z,12.35
2022-09-21T06:29:26.270Z,13.75
2022-09-21T06:31:53.028Z,13.98
2022-09-21T06:34:19.825Z,10.70
2022-09-21T06:36:46.455Z,11.45
2022-09-21T06:39:13.708Z,13.20
2022-09-21T06:41:41.709Z,12.65
2022-09-21T06:44:10.199Z,10.38
2022-09-21T06:46:37.132Z,11.60
2022-09-21T06:49:03.994Z,10.15
2022-09-21T06:51:30.678Z,10.35
2022-09-21T06:53:58.011Z,9.55
2022-09-21T06:56:25.482Z,12.50
2022-09-21T06:58:57.773Z,14.45
2022-09-21T07:01:24.953Z,9.80
2022-09-21T07:03:52.745Z,7.22
2022-09-21T07:06:20.417Z,7.47
2022-09-21T07:11:33.921Z,9.63
2022-09-21T07:14:02.040Z,8.30
2022-09-21T07:16:28.731Z,8.15
2022-09-21T07:18:55.404Z,10.73
2022-09-21T07:21:22.178Z,7.32
2022-09-21T07:23:49.017Z,5.88
2022-09-21T07:26:16.187Z,10.70
2022-09-21T07:28:43.022Z,9.75
2022-09-21T07:31:14.215Z,8.40
2022-09-21T07:33:41.413Z,6.97
2022-09-21T07:36:12.843Z,5.43
2022-09-21T07:38:42.099Z,8.82
2022-09-21T07:43:39.338Z,7.43
2022-09-21T07:48:34.237Z,3.80
2022-09-21T07:51:04.949Z,5.88
2022-09-21T07:53:32.148Z,7.85
2022-09-21T07:56:02.866Z,9.15
2022-09-21T07:58:48.679Z,7.50
2022-09-21T08:01:15.666Z,5.40
2022-09-21T08:03:43.964Z,7.03
2022-09-21T08:06:10.865Z,6.55
2022-09-21T08:08:37.717Z,9.00
2022-09-21T08:11:05.056Z,7.90
2022-09-21T08:13:32.064Z,6.07
2022-09-21T08:15:59.819Z,8.32
2022-09-21T08:18:27.149Z,5.28
2022-09-21T08:20:56.254Z,7.15
2022-09-21T08:23:23.426Z,4.00
2022-09-21T08:25:51.505Z,5.53
2022-09-21T08:28:18.716Z,6.03
2022-09-21T08:30:45.369Z,5.82
2022-09-21T08:33:12.050Z,7.68
2022-09-21T08:35:38.705Z,6.30
2022-09-21T08:38:06.710Z,4.63
2022-09-21T08:40:34.883Z,4.53
2022-09-21T08:43:07.276Z,7.57
2022-09-21T08:45:37.940Z,6.90
2022-09-21T08:48:11.057Z,4.05
2022-09-21T08:50:42.529Z,6.13
2022-09-21T08:53:16.549Z,4.28
2022-09-21T08:55:43.182Z,6.30
2022-09-21T08:58:23.316Z,4.70
2022-09-21T09:01:02.404Z,5.40
2022-09-21T09:04:04.202Z,3.75
2022-09-21T09:06:42.119Z,5.05
2022-09-21T09:09:49.305Z,2.75
2022-09-21T09:12:34.619Z,4.78
2022-09-21T09:15:14.606Z,4.82
2022-09-21T09:17:53.174Z,3.95
2022-09-21T09:20:24.383Z,3.85
2022-09-21T09:23:00.159Z,2.90
2022-09-21T09:25:36.175Z,4.80
2022-09-21T09:28:21.248Z,5.80
2022-09-21T09:30:56.349Z,4.57
2022-09-21T09:33:27.054Z,7.53
2022-09-21T09:36:00.590Z,5.20
2022-09-21T09:38:32.398Z,6.70
2022-09-21T09:41:16.683Z,4.57
2022-09-21T09:43:53.880Z,3.97
2022-09-21T09:46:31.284Z,2.05
2022-09-21T09:49:15.901Z,2.08
2022-09-21T09:51:45.280Z,2.22
2022-09-21T09:54:15.712Z,3.75
2022-09-21T09:56:44.100Z,2.95
2022-09-21T09:59:17.272Z,2.30
2022-09-21T10:01:50.585Z,4.95
2022-09-21T10:04:18.139Z,3.53
2022-09-21T10:06:46.644Z,5.22
2022-09-21T10:11:52.742Z,2.15
2022-09-21T10:14:25.416Z,4.20
2022-09-21T10:16:54.522Z,7.53
2022-09-21T10:19:25.596Z,3.97
2022-09-21T10:21:57.695Z,2.22
2022-09-21T10:24:26.813Z,4.05
2022-09-21T10:26:56.475Z,3.08
2022-09-21T10:29:40.644Z,1.55
2022-09-21T10:32:21.535Z,2.95
2022-09-21T10:35:16.079Z,3.72
2022-09-21T10:37:45.447Z,2.17
2022-09-21T10:40:24.379Z,5.00
2022-09-21T10:42:55.388Z,2.25
2022-09-21T10:45:25.127Z,1.50
2022-09-21T10:47:55.252Z,5.25
2022-09-21T10:50:27.001Z,2.42
2022-09-21T10:52:58.669Z,1.65
2022-09-21T10:55:28.119Z,3.40
2022-09-21T10:57:57.366Z,4.35
2022-09-21T11:00:37.111Z,4.97
2022-09-21T11:03:31.527Z,2.28
2022-09-21T11:06:04.726Z,2.72
2022-09-21T11:08:36.148Z,2.50
2022-09-21T11:11:25.799Z,2.58
2022-09-21T11:14:01.414Z,2.97
2022-09-21T11:16:34.929Z,3.65
2022-09-21T11:19:11.704Z,6.63
2022-09-21T11:21:44.787Z,3.67
2022-09-21T11:24:21.140Z,3.15
2022-09-21T11:26:54.744Z,4.18
2022-09-21T11:29:29.203Z,1.27
2022-09-21T11:32:19.314Z,2.95
2022-09-21T11:35:18.619Z,3.03
2022-09-21T11:37:54.595Z,3.97
2022-09-21T11:40:36.669Z,3.72
2022-09-21T11:43:19.805Z,1.77
2022-09-21T11:46:01.480Z,1.80
2022-09-21T11:48:44.538Z,6.90
2022-09-21T11:51:38.393Z,2.88
2022-09-21T11:54:40.783Z,3.08
2022-09-21T11:57:19.060Z,2.05
2022-09-21T12:00:07.941Z,1.60
2022-09-21T12:03:06.684Z,2.65
2022-09-21T12:05:38.885Z,2.25
2022-09-21T12:08:38.426Z,1.75
2022-09-21T12:11:14.631Z,1.60
2022-09-21T12:13:50.566Z,1.63
2022-09-21T12:16:25.993Z,3.08
2022-09-21T12:19:04.413Z,1.85
2022-09-21T12:21:35.316Z,3.13
2022-09-21T12:24:12.539Z,2.03
2022-09-21T12:26:42.887Z,2.22
2022-09-21T12:29:16.159Z,1.42
2022-09-21T12:31:48.353Z,2.05
2022-09-21T12:34:20.855Z,2.35
2022-09-21T12:36:58.510Z,2.35
2022-09-21T12:39:29.020Z,2.38
2022-09-21T12:42:01.973Z,3.97
2022-09-21T12:44:35.942Z,2.35
2022-09-21T12:47:12.012Z,1.35
2022-09-21T12:49:43.405Z,4.18
2022-09-21T12:52:18.164Z,3.72
2022-09-21T12:54:52.430Z,1.60
2022-09-21T12:57:53.519Z,4.28
2022-09-21T13:00:20.803Z,2.30
2022-09-21T13:02:54.575Z,3.28
2022-09-21T13:05:34.536Z,5.80
2022-09-21T13:08:10.207Z,6.03
2022-09-21T13:10:51.695Z,3.63
2022-09-21T13:13:33.260Z,3.58
2022-09-21T13:16:01.777Z,1.20
2022-09-21T13:18:36.314Z,3.38
2022-09-21T13:21:18.711Z,3.38
2022-09-21T13:23:54.956Z,4.75
2022-09-21T13:26:33.405Z,6.35
2022-09-21T13:29:21.656Z,2.85
2022-09-21T13:31:58.070Z,2.78
2022-09-21T13:34:28.397Z,2.83
2022-09-21T13:37:25.264Z,3.13
2022-09-21T13:40:38.741Z,3.20
2022-09-21T13:43:46.610Z,2.38
2022-09-21T13:46:48.822Z,2.75
2022-09-21T13:49:21.568Z,2.22
2022-09-21T13:51:57.362Z,2.90
2022-09-21T13:54:28.921Z,2.80
2022-09-21T13:57:18.113Z,5.28
2022-09-21T13:59:49.325Z,3.50
2022-09-21T14:02:31.650Z,1.65
2022-09-21T14:05:05.073Z,3.17
2022-09-21T14:07:33.635Z,4.07
2022-09-21T14:10:06.002Z,3.92
2022-09-21T14:12:38.696Z,3.22
2022-09-21T14:15:30.785Z,4.05
2022-09-21T14:18:20.973Z,2.17
2022-09-21T14:21:10.623Z,1.95
2022-09-21T14:23:38.713Z,2.40
2022-09-21T14:26:32.904Z,2.55
2022-09-21T14:29:08.309Z,2.25
2022-09-21T14:31:39.082Z,2.70
2022-09-21T14:34:12.030Z,2.10
2022-09-21T14:36:43.166Z,4.07
2022-09-21T14:39:19.001Z,1.67
2022-09-21T14:41:52.316Z,2.03
2022-09-21T14:44:21.994Z,3.03
2022-09-21T14:47:00.943Z,2.35
2022-09-21T14:49:40.903Z,4.30
2022-09-21T14:52:31.173Z,2.80
2022-09-21T14:55:11.794Z,2.47
2022-09-21T14:58:10.287Z,1.33
2022-09-21T15:00:39.622Z,2.35
2022-09-21T15:03:39.158Z,4.57
2022-09-21T15:06:38.672Z,0.82
2022-09-21T15:09:45.830Z,3.65
2022-09-21T15:12:17.299Z,5.00
2022-09-21T15:14:48.477Z,4.43
2022-09-21T15:17:24.291Z,1.95
2022-09-21T15:19:51.528Z,1.75
2022-09-21T15:22:20.856Z,7.40
2022-09-21T15:24:52.894Z,4.63
2022-09-21T15:27:23.124Z,1.55
2022-09-21T15:29:58.467Z,2.75
2022-09-21T15:32:35.418Z,4.38
2022-09-21T15:35:04.653Z,3.00
2022-09-21T15:37:36.098Z,6.95
2022-09-21T15:40:05.388Z,7.93
2022-09-21T15:42:35.051Z,3.15
2022-09-21T15:45:14.944Z,4.63
2022-09-21T15:47:44.961Z,2.22
2022-09-21T15:50:13.861Z,2.03
2022-09-21T15:52:46.007Z,3.65
2022-09-21T15:55:21.237Z,3.35
2022-09-21T15:57:50.206Z,2.20
2022-09-21T16:00:27.212Z,1.88
2022-09-21T16:02:58.752Z,6.05
2022-09-21T16:05:25.638Z,7.38
2022-09-21T16:08:05.159Z,2.08
2022-09-21T16:10:38.403Z,3.17
2022-09-21T16:13:30.157Z,3.45
2022-09-21T16:16:03.001Z,1.80
2022-09-21T16:18:35.652Z,2.58
2022-09-21T16:21:09.387Z,3.40
2022-09-21T16:23:39.355Z,1.95
2022-09-21T16:26:06.885Z,2.95
2022-09-21T16:28:39.569Z,3.90
2022-09-21T16:31:28.608Z,2.83
2022-09-21T16:34:01.592Z,4.38
2022-09-21T16:36:43.678Z,3.33
2022-09-21T16:39:15.478Z,3.20
2022-09-21T16:41:48.296Z,2.60
2022-09-21T16:44:20.745Z,1.92
2022-09-21T16:46:54.076Z,5.43
2022-09-21T16:49:25.745Z,4.70
2022-09-21T16:51:55.893Z,3.00
2022-09-21T16:54:25.531Z,3.33
2022-09-21T16:56:54.352Z,2.42
2022-09-21T16:59:23.284Z,6.10
2022-09-21T17:01:56.359Z,10.98
2022-09-21T17:04:29.918Z,11.77
2022-09-21T17:06:58.293Z,15.30
2022-09-21T17:09:29.778Z,8.98
2022-09-21T17:12:00.398Z,5.85
2022-09-21T17:14:28.176Z,6.13
2022-09-21T17:16:58.493Z,4.43
2022-09-21T17:19:27.761Z,5.35
2022-09-21T17:21:54.659Z,3.08
2022-09-21T17:24:45.842Z,4.68
2022-09-21T17:27:09.169Z,4.50
2022-09-21T17:29:39.941Z,3.30
2022-09-21T17:32:11.255Z,2.42
2022-09-21T17:34:37.905Z,1.42
2022-09-21T17:37:04.567Z,4.05
2022-09-21T17:39:31.192Z,5.75
2022-09-21T17:42:02.364Z,3.17
2022-09-21T17:44:47.842Z,4.13
2022-09-21T17:47:23.168Z,3.50
2022-09-21T17:49:50.873Z,5.15
2022-09-21T17:52:38.630Z,2.90
2022-09-21T17:55:08.425Z,5.97
2022-09-21T17:57:49.942Z,5.28
2022-09-21T18:00:20.524Z,2.63
2022-09-21T18:02:49.639Z,5.35
2022-09-21T18:07:50.999Z,3.00
2022-09-21T18:10:18.919Z,4.15
2022-09-21T18:13:19.333Z,3.67
2022-09-21T18:15:56.624Z,3.17
2022-09-21T18:18:43.393Z,3.25
2022-09-21T18:21:16.998Z,3.65
2022-09-21T18:23:54.857Z,4.88
2022-09-21T18:26:23.376Z,3.85
2022-09-21T18:28:57.140Z,3.75
2022-09-21T18:31:36.638Z,4.63
2022-09-21T18:34:18.181Z,5.18
2022-09-21T18:36:52.662Z,5.25
2022-09-21T18:39:32.854Z,3.33
2022-09-21T18:42:13.548Z,2.95
2022-09-21T18:44:49.860Z,2.85
2022-09-21T18:47:22.441Z,3.30
2022-09-21T18:49:59.109Z,5.22
2022-09-21T18:52:36.425Z,6.30
2022-09-21T18:55:17.924Z,3.83
2022-09-21T18:57:45.631Z,5.28
2022-09-21T19:00:15.113Z,4.15
2022-09-21T19:02:59.037Z,4.43
2022-09-21T19:05:33.209Z,7.72
2022-09-21T19:08:09.270Z,5.05
2022-09-21T19:10:38.832Z,4.00
2022-09-21T19:13:32.884Z,4.75
2022-09-21T19:16:11.734Z,4.85
2022-09-21T19:18:47.185Z,3.90
2022-09-21T19:21:26.961Z,4.18
2022-09-21T19:24:05.828Z,3.05
2022-09-21T19:26:42.741Z,3.95
2022-09-21T19:29:30.090Z,3.17
2022-09-21T19:31:57.515Z,3.67
2022-09-21T19:34:24.500Z,4.00
2022-09-21T19:36:52.768Z,3.42
2022-09-21T19:39:20.096Z,7.07
2022-09-21T19:42:02.698Z,5.65
2022-09-21T19:44:45.291Z,5.57
2022-09-21T19:47:19.197Z,5.53
2022-09-21T19:49:50.125Z,5.22
2022-09-21T19:52:22.212Z,4.40
2022-09-21T19:55:07.935Z,5.82
2022-09-21T19:57:54.725Z,5.93
2022-09-21T20:00:24.023Z,6.05
2022-09-21T20:03:02.782Z,6.93
2022-09-21T20:05:38.388Z,4.28
2022-09-21T20:08:16.057Z,4.15
2022-09-21T20:10:58.683Z,7.45
2022-09-21T20:13:36.574Z,8.20
2022-09-21T20:16:23.155Z,11.32
2022-09-21T20:18:58.968Z,7.35
2022-09-21T20:24:02.256Z,8.80
2022-09-21T20:26:30.147Z,10.38
2022-09-21T20:28:58.019Z,12.20
2022-09-21T20:31:26.390Z,6.35
2022-09-21T20:33:53.045Z,9.63
2022-09-21T20:36:19.682Z,9.02
2022-09-21T20:38:46.411Z,7.95
2022-09-21T20:41:18.369Z,7.93
2022-09-21T20:43:45.017Z,9.43
2022-09-21T20:46:11.979Z,8.05
2022-09-21T20:48:38.823Z,7.65
2022-09-21T20:51:06.570Z,7.55
2022-09-21T20:53:34.473Z,9.15
2022-09-21T20:56:02.271Z,7.93
2022-09-21T20:58:30.552Z,7.25
2022-09-21T21:01:05.255Z,6.40
2022-09-21T21:03:32.055Z,6.15
2022-09-21T21:06:08.400Z,6.95
2022-09-21T21:08:35.901Z,6.85
2022-09-21T21:11:02.940Z,6.22
2022-09-21T21:13:32.425Z,8.30
2022-09-21T21:16:00.866Z,6.20
2022-09-21T21:18:27.949Z,5.10
2022-09-21T21:20:54.827Z,5.22
2022-09-21T21:23:21.462Z,6.65
2022-09-21T21:25:49.003Z,4.03
2022-09-21T21:28:15.734Z,4.32
2022-09-21T21:30:44.671Z,4.90
2022-09-21T21:33:11.422Z,6.10
2022-09-21T21:35:38.065Z,4.35
2022-09-21T21:38:04.674Z,5.28
2022-09-21T21:40:31.487Z,3.78
2022-09-21T21:42:58.182Z,5.88
2022-09-21T21:45:24.857Z,5.07
2022-09-21T21:47:54.549Z,4.53
2022-09-21T21:50:21.465Z,4.07
2022-09-21T21:52:48.135Z,4.35
2022-09-21T21:55:15.416Z,4.82
2022-09-21T21:57:42.096Z,5.63
2022-09-21T22:00:10.286Z,3.75
2022-09-21T22:02:37.054Z,9.90
2022-09-21T22:05:06.546Z,4.22
2022-09-21T22:09:59.870Z,4.30
2022-09-21T22:12:26.768Z,2.75
2022-09-21T22:14:53.383Z,8.02
2022-09-21T22:17:20.530Z,6.03
2022-09-21T22:19:47.325Z,6.43
2022-09-21T22:22:15.610Z,5.70
2022-09-21T22:24:42.293Z,6.65
2022-09-21T22:27:08.996Z,6.07
2022-09-21T22:29:36.174Z,5.00
2022-09-21T22:32:03.364Z,6.10
2022-09-21T22:34:30.792Z,3.33
2022-09-21T22:36:58.915Z,3.92
2022-09-21T22:39:28.033Z,5.25
2022-09-21T22:41:54.701Z,5.18
2022-09-21T22:44:21.561Z,6.20
2022-09-21T22:46:48.184Z,4.53
2022-09-21T22:49:14.819Z,4.15
2022-09-21T22:51:41.947Z,3.55
2022-09-21T22:54:08.984Z,5.43
2022-09-21T22:56:37.009Z,3.85
2022-09-21T22:59:05.580Z,5.53
2022-09-21T23:01:34.150Z,6.75
2022-09-21T23:04:02.686Z,6.60
2022-09-21T23:06:33.218Z,6.78
2022-09-21T23:09:02.191Z,10.50
2022-09-21T23:11:30.620Z,6.18
2022-09-21T23:13:59.380Z,4.38
2022-09-21T23:16:27.881Z,6.68
2022-09-21T23:18:55.372Z,5.95
2022-09-21T23:21:24.653Z,4.80
2022-09-21T23:23:54.907Z,5.90
2022-09-21T23:26:24.365Z,7.00
2022-09-21T23:31:22.151Z,6.72
2022-09-21T23:33:50.664Z,4.63
2022-09-21T23:36:19.900Z,5.70
2022-09-21T23:38:47.347Z,3.45
2022-09-21T23:41:15.937Z,4.50
2022-09-21T23:43:43.973Z,3.20
2022-09-21T23:46:12.906Z,4.03
2022-09-21T23:48:42.397Z,4.78
2022-09-21T23:51:09.326Z,5.78
2022-09-21T23:53:36.610Z,6.53
2022-09-21T23:56:04.671Z,3.45
2022-09-21T23:58:32.185Z,4.18
